Adrian, Pennsylvania
Current Conditions -  °F | °C
As of 3:35 AM on Monday 26 Jan 2015 (Local Time) from KBTP Reporting Station
Overcast Overcast  
Wind Chill: 18°   Ceiling: 1500
Heat Index: 27°   Visibility: 2.5mi
Dew Point: 25°   Wind: 8mph
Humidity: 93%   Direction: 50°NE
Pressure: 29.73"   Gusts: NA
Location:  40.88°N, 79.54°W
Report Text: KBTP 260835Z AUTO 05007KT 2 1/2SM SCT010 OVC015 M03/M04 A2973 RMK AO1
Loading
Personal Weather Stations






























Interactive Weather Map New forecast layout! Learn more

10-Day Weather Forecast

Advertisements
Track Severe Weather on mobile